createdAt,value
2019-04-21T00:00:51.501Z,9.75
2019-04-21T00:03:23.274Z,9.55
2019-04-21T00:06:07.588Z,9.95
2019-04-21T00:08:35.090Z,9.95
2019-04-21T00:11:12.429Z,9.45
2019-04-21T00:13:33.190Z,9.15
2019-04-21T00:15:57.927Z,10.75
2019-04-21T00:18:47.894Z,9.48
2019-04-21T00:21:21.150Z,9.48
2019-04-21T00:23:59.068Z,10.50
2019-04-21T00:26:31.807Z,8.93
2019-04-21T00:29:09.734Z,9.83
2019-04-21T00:31:28.546Z,10.03
2019-04-21T00:33:48.145Z,9.93
2019-04-21T00:36:22.703Z,9.35
2019-04-21T00:39:22.005Z,9.30
2019-04-21T00:41:36.601Z,10.20
2019-04-21T00:44:04.500Z,9.88
2019-04-21T00:46:35.150Z,10.15
2019-04-21T00:49:05.949Z,9.80
2019-04-21T00:54:32.815Z,9.80
2019-04-21T00:57:06.544Z,9.70
2019-04-21T00:59:33.061Z,10.55
2019-04-21T01:04:37.097Z,10.32
2019-04-21T01:09:27.861Z,11.12
2019-04-21T01:12:03.708Z,10.08
2019-04-21T01:14:45.630Z,10.90
2019-04-21T01:17:15.731Z,10.68
2019-04-21T01:19:36.985Z,10.72
2019-04-21T01:21:49.790Z,11.30
2019-04-21T01:24:26.707Z,11.28
2019-04-21T01:27:01.042Z,11.10
2019-04-21T01:29:48.137Z,11.33
2019-04-21T01:32:31.243Z,11.53
2019-04-21T01:34:58.291Z,11.43
2019-04-21T01:37:35.743Z,12.25
2019-04-21T01:40:02.512Z,12.75
2019-04-21T01:44:58.317Z,12.47
2019-04-21T01:47:26.227Z,12.35
2019-04-21T01:49:59.505Z,12.33
2019-04-21T01:52:50.236Z,12.18
2019-04-21T01:55:25.185Z,12.85
2019-04-21T01:57:49.341Z,12.20
2019-04-21T02:00:30.546Z,12.60
2019-04-21T02:03:09.914Z,13.65
2019-04-21T02:05:36.356Z,13.40
2019-04-21T02:08:00.782Z,13.38
2019-04-21T02:10:44.684Z,13.62
2019-04-21T02:13:03.558Z,14.38
2019-04-21T02:15:56.065Z,13.70
2019-04-21T02:18:09.198Z,13.95
2019-04-21T02:20:32.724Z,14.40
2019-04-21T02:25:44.577Z,14.64
2019-04-21T02:28:24.014Z,14.40
2019-04-21T02:30:55.097Z,14.28
2019-04-21T02:36:00.570Z,14.03
2019-04-21T02:38:32.127Z,14.38
2019-04-21T02:43:25.045Z,14.70
2019-04-21T02:46:04.431Z,14.10
2019-04-21T02:51:01.672Z,14.25
2019-04-21T02:53:50.259Z,13.65
2019-04-21T02:56:13.886Z,14.85
2019-04-21T02:58:47.963Z,14.30
2019-04-21T03:01:25.912Z,14.73
2019-04-21T03:04:13.592Z,13.98
2019-04-21T03:09:29.676Z,14.45
2019-04-21T03:12:05.574Z,14.75
2019-04-21T03:14:40.744Z,16.07
2019-04-21T03:16:57.733Z,14.63
2019-04-21T03:19:36.509Z,15.93
2019-04-21T03:22:07.186Z,14.65
2019-04-21T03:24:42.083Z,15.78
2019-04-21T03:37:14.062Z,15.90
2019-04-21T03:44:43.615Z,16.05
2019-04-21T03:49:50.086Z,17.02
2019-04-21T03:55:42.911Z,17.35
2019-04-21T03:58:04.785Z,17.12
2019-04-21T04:00:34.659Z,17.32
2019-04-21T04:06:03.563Z,16.85
2019-04-21T04:11:05.952Z,17.23
2019-04-21T04:13:39.367Z,17.92
2019-04-21T04:18:39.103Z,18.48
2019-04-21T04:21:10.125Z,19.42
2019-04-21T04:23:41.549Z,18.32
2019-04-21T04:31:05.093Z,18.50
2019-04-21T04:38:52.332Z,20.00
2019-04-21T04:41:24.962Z,17.98
2019-04-21T04:44:07.123Z,20.72
2019-04-21T04:46:26.659Z,19.00
2019-04-21T04:49:01.702Z,21.23
2019-04-21T04:51:48.383Z,20.52
2019-04-21T04:54:06.367Z,20.30
2019-04-21T04:59:23.276Z,19.82
2019-04-21T05:02:19.809Z,20.50
2019-04-21T05:06:42.627Z,21.97
2019-04-21T05:11:44.334Z,20.15
2019-04-21T05:21:42.042Z,20.45
2019-04-21T05:23:55.882Z,21.37
2019-04-21T05:26:25.812Z,21.17
2019-04-21T05:31:44.363Z,19.77
2019-04-21T05:34:09.502Z,18.33
2019-04-21T05:36:44.572Z,20.05
2019-04-21T05:39:14.638Z,20.02
2019-04-21T05:41:43.030Z,20.95
2019-04-21T05:44:31.225Z,20.65
2019-04-21T05:47:08.306Z,21.75
2019-04-21T05:49:38.716Z,20.43
2019-04-21T05:52:08.030Z,21.87
2019-04-21T05:54:53.077Z,20.90
2019-04-21T05:57:11.955Z,21.90
2019-04-21T05:59:49.174Z,20.55
2019-04-21T06:02:22.269Z,20.30
2019-04-21T06:09:57.319Z,21.15
2019-04-21T06:12:29.715Z,20.43
2019-04-21T06:17:35.078Z,21.30
2019-04-21T06:20:02.916Z,20.90
2019-04-21T06:22:34.017Z,19.95
2019-04-21T06:25:35.880Z,19.82
2019-04-21T06:27:34.061Z,19.73
2019-04-21T06:30:06.893Z,20.55
2019-04-21T06:32:46.867Z,20.25
2019-04-21T06:35:39.953Z,18.98
2019-04-21T06:38:21.301Z,20.00
2019-04-21T06:40:38.888Z,19.60
2019-04-21T06:43:15.800Z,20.72
2019-04-21T06:45:37.720Z,18.95
2019-04-21T06:48:09.100Z,20.50
2019-04-21T06:50:39.870Z,19.27
2019-04-21T06:53:04.059Z,19.37
2019-04-21T06:55:41.923Z,19.42
2019-04-21T06:58:11.949Z,19.15
2019-04-21T07:03:20.642Z,16.80
2019-04-21T07:10:47.991Z,19.00
2019-04-21T07:13:19.164Z,18.92
2019-04-21T07:15:43.444Z,18.32
2019-04-21T07:18:24.941Z,17.25
2019-04-21T07:20:49.186Z,18.00
2019-04-21T07:23:28.506Z,17.00
2019-04-21T07:25:54.817Z,16.70
2019-04-21T07:28:25.341Z,16.07
2019-04-21T07:30:59.467Z,15.78
2019-04-21T07:33:50.646Z,15.83
2019-04-21T07:35:59.434Z,15.25
2019-04-21T07:40:45.965Z,15.28
2019-04-21T07:45:49.747Z,15.03
2019-04-21T07:51:11.209Z,16.30
2019-04-21T07:53:49.881Z,15.28
2019-04-21T07:55:59.425Z,15.25
2019-04-21T07:58:47.690Z,15.07
2019-04-21T08:01:19.943Z,14.33
2019-04-21T08:03:50.736Z,15.38
2019-04-21T08:08:51.039Z,15.05
2019-04-21T08:11:15.257Z,14.63
2019-04-21T08:14:01.708Z,14.07
2019-04-21T08:16:28.562Z,13.70
2019-04-21T08:18:52.106Z,13.05
2019-04-21T08:21:23.621Z,14.50
2019-04-21T08:26:29.241Z,14.43
2019-04-21T08:31:32.668Z,15.28
2019-04-21T08:34:09.668Z,14.95
2019-04-21T08:36:33.954Z,14.93
2019-04-21T08:39:08.753Z,14.35
2019-04-21T08:41:40.786Z,14.98
2019-04-21T08:46:39.135Z,14.50
2019-04-21T08:49:18.440Z,14.85
2019-04-21T08:51:50.147Z,14.78
2019-04-21T08:56:55.399Z,15.30
2019-04-21T09:02:18.239Z,15.32
2019-04-21T09:04:47.985Z,14.98
2019-04-21T09:07:21.323Z,15.53
2019-04-21T09:09:47.435Z,14.40
2019-04-21T09:12:14.928Z,14.47
2019-04-21T09:14:50.596Z,14.25
2019-04-21T09:17:15.287Z,14.80
2019-04-21T09:20:01.336Z,14.30
2019-04-21T09:22:26.902Z,13.55
2019-04-21T09:24:55.928Z,14.05
2019-04-21T09:27:27.560Z,13.00
2019-04-21T09:29:47.954Z,12.73
2019-04-21T09:32:18.513Z,13.47
2019-04-21T09:34:45.304Z,13.93
2019-04-21T09:37:26.443Z,12.93
2019-04-21T09:39:50.258Z,13.60
2019-04-21T09:42:18.411Z,12.65
2019-04-21T09:47:22.571Z,12.63
2019-04-21T09:49:49.443Z,12.95
2019-04-21T09:52:23.914Z,12.90
2019-04-21T09:57:31.526Z,11.47
2019-04-21T10:02:35.608Z,11.65
2019-04-21T10:07:29.315Z,12.60
2019-04-21T10:09:54.498Z,12.90
2019-04-21T10:12:23.925Z,13.00
2019-04-21T10:14:53.237Z,12.90
2019-04-21T10:17:24.213Z,13.22
2019-04-21T10:22:23.206Z,13.80
2019-04-21T10:24:52.656Z,12.93
2019-04-21T10:27:23.116Z,12.35
2019-04-21T10:32:23.645Z,11.33
2019-04-21T10:34:52.903Z,12.88
2019-04-21T10:37:35.414Z,12.05
2019-04-21T10:39:55.798Z,12.07
2019-04-21T10:42:25.262Z,12.68
2019-04-21T10:44:54.843Z,12.30
2019-04-21T10:47:24.776Z,12.13
2019-04-21T10:49:58.298Z,10.78
2019-04-21T10:52:46.915Z,10.65
2019-04-21T10:55:32.343Z,11.28
2019-04-21T10:58:06.407Z,10.32
2019-04-21T11:00:36.870Z,9.68
2019-04-21T11:03:24.852Z,10.28
2019-04-21T11:05:56.687Z,10.50
2019-04-21T11:08:32.570Z,9.80
2019-04-21T11:10:58.208Z,10.28
2019-04-21T11:13:28.367Z,9.30
2019-04-21T11:15:59.176Z,9.73
2019-04-21T11:18:28.618Z,9.08
2019-04-21T11:20:58.658Z,8.63
2019-04-21T11:23:29.121Z,9.45
2019-04-21T11:26:00.116Z,8.45
2019-04-21T11:28:31.073Z,10.35
2019-04-21T11:33:43.026Z,9.85
2019-04-21T11:36:13.375Z,9.10
2019-04-21T11:39:05.063Z,9.80
2019-04-21T11:41:16.057Z,8.10
2019-04-21T11:43:45.577Z,9.45
2019-04-21T11:46:16.523Z,9.55
2019-04-21T11:48:46.198Z,9.43
2019-04-21T11:51:15.721Z,9.67
2019-04-21T11:53:45.018Z,9.15
2019-04-21T11:56:14.708Z,11.18
2019-04-21T11:58:44.055Z,11.30
2019-04-21T12:01:15.555Z,10.13
2019-04-21T12:03:45.470Z,9.00
2019-04-21T12:06:17.275Z,8.53
2019-04-21T12:08:49.924Z,9.48
2019-04-21T12:11:17.897Z,8.38
2019-04-21T12:13:47.972Z,8.60
2019-04-21T12:16:17.427Z,9.00
2019-04-21T12:18:47.172Z,8.35
2019-04-21T12:21:16.731Z,8.90
2019-04-21T12:23:46.047Z,9.30
2019-04-21T12:26:15.949Z,8.70
2019-04-21T12:28:45.955Z,9.00
2019-04-21T12:31:33.732Z,8.53
2019-04-21T12:34:05.836Z,8.43
2019-04-21T12:36:35.815Z,7.58
2019-04-21T12:39:08.414Z,8.10
2019-04-21T12:41:38.417Z,7.55
2019-04-21T12:46:38.319Z,7.22
2019-04-21T12:49:09.780Z,7.22
2019-04-21T12:51:39.779Z,7.37
2019-04-21T12:54:11.980Z,7.97
2019-04-21T12:56:41.487Z,7.70
2019-04-21T12:59:12.038Z,7.10
2019-04-21T13:01:41.507Z,7.33
2019-04-21T13:04:11.072Z,7.40
2019-04-21T13:06:41.515Z,8.05
2019-04-21T13:09:14.310Z,7.22
2019-04-21T13:14:11.587Z,6.67
2019-04-21T13:16:41.272Z,6.95
2019-04-21T13:19:11.484Z,6.33
2019-04-21T13:24:09.845Z,5.90
2019-04-21T13:26:45.662Z,6.47
2019-04-21T13:31:40.384Z,7.42
2019-04-21T13:34:10.502Z,6.73
2019-04-21T13:36:41.319Z,6.43
2019-04-21T13:39:44.401Z,6.05
2019-04-21T13:42:00.561Z,6.75
2019-04-21T13:44:19.627Z,6.45
2019-04-21T13:46:52.350Z,6.10
2019-04-21T13:49:23.354Z,6.45
2019-04-21T13:51:54.060Z,6.55
2019-04-21T13:54:25.428Z,6.62
2019-04-21T13:56:56.395Z,7.37
2019-04-21T13:59:26.464Z,7.08
2019-04-21T14:01:55.914Z,6.60
2019-04-21T14:04:25.333Z,7.75
2019-04-21T14:06:56.265Z,6.45
2019-04-21T14:09:37.929Z,6.62
2019-04-21T14:11:57.092Z,6.33
2019-04-21T14:14:26.510Z,6.58
2019-04-21T14:16:56.175Z,7.12
2019-04-21T14:19:25.693Z,6.30
2019-04-21T14:21:55.357Z,6.90
2019-04-21T14:24:24.835Z,6.27
2019-04-21T14:26:54.392Z,6.95
2019-04-21T14:29:23.949Z,6.60
2019-04-21T14:31:53.765Z,8.05
2019-04-21T14:34:23.873Z,6.97
2019-04-21T14:36:54.912Z,7.20
2019-04-21T14:39:24.382Z,7.17
2019-04-21T14:41:53.877Z,6.97
2019-04-21T14:44:23.197Z,7.12
2019-04-21T14:46:55.313Z,7.10
2019-04-21T14:49:39.424Z,7.17
2019-04-21T14:52:10.735Z,7.12
2019-04-21T14:54:42.700Z,7.45
2019-04-21T14:57:13.473Z,7.65
2019-04-21T14:59:42.971Z,7.80
2019-04-21T15:02:12.278Z,7.03
2019-04-21T15:04:41.776Z,7.05
2019-04-21T15:07:11.166Z,7.87
2019-04-21T15:09:42.533Z,7.47
2019-04-21T15:12:11.883Z,7.55
2019-04-21T15:14:42.258Z,8.23
2019-04-21T15:17:12.521Z,10.40
2019-04-21T15:19:49.652Z,7.92
2019-04-21T15:22:14.523Z,7.55
2019-04-21T15:24:44.521Z,7.75
2019-04-21T15:27:14.687Z,7.72
2019-04-21T15:29:44.872Z,7.60
2019-04-21T15:32:14.897Z,8.40
2019-04-21T15:34:44.449Z,7.77
2019-04-21T15:37:13.829Z,6.80
2019-04-21T15:39:44.683Z,7.92
2019-04-21T15:42:14.580Z,8.18
2019-04-21T15:44:44.952Z,8.63
2019-04-21T15:47:15.792Z,9.07
2019-04-21T15:50:00.917Z,8.68
2019-04-21T15:52:27.733Z,8.48
2019-04-21T15:55:05.356Z,8.63
2019-04-21T15:57:52.291Z,8.55
2019-04-21T16:00:24.663Z,9.40
2019-04-21T16:02:54.846Z,8.38
2019-04-21T16:05:26.655Z,9.40
2019-04-21T16:10:36.794Z,8.65
2019-04-21T16:12:58.107Z,8.00
2019-04-21T16:15:28.265Z,7.70
2019-04-21T16:17:59.245Z,7.93
2019-04-21T16:20:29.990Z,8.95
2019-04-21T16:23:00.308Z,8.38
2019-04-21T16:25:30.567Z,7.90
2019-04-21T16:28:01.418Z,7.42
2019-04-21T16:30:30.918Z,7.10
2019-04-21T16:33:00.283Z,7.47
2019-04-21T16:35:29.672Z,7.72
2019-04-21T16:38:00.791Z,7.55
2019-04-21T16:40:41.338Z,7.45
2019-04-21T16:43:01.057Z,8.10
2019-04-21T16:45:32.727Z,7.50
2019-04-21T16:48:03.419Z,7.20
2019-04-21T16:50:33.976Z,7.83
2019-04-21T16:53:12.155Z,7.80
2019-04-21T16:55:44.875Z,7.05
2019-04-21T16:58:32.695Z,6.75
2019-04-21T17:01:10.240Z,8.20
2019-04-21T17:03:34.820Z,7.72
2019-04-21T17:06:05.100Z,7.33
2019-04-21T17:08:36.711Z,7.70
2019-04-21T17:11:16.140Z,8.23
2019-04-21T17:13:38.270Z,10.08
2019-04-21T17:16:39.925Z,7.73
2019-04-21T17:18:52.851Z,7.65
2019-04-21T17:21:11.137Z,6.87
2019-04-21T17:23:40.834Z,7.28
2019-04-21T17:26:10.980Z,7.00
2019-04-21T17:28:40.784Z,8.00
2019-04-21T17:31:10.861Z,7.22
2019-04-21T17:33:41.398Z,7.30
2019-04-21T17:36:11.705Z,7.35
2019-04-21T17:38:41.820Z,7.42
2019-04-21T17:41:23.233Z,7.13
2019-04-21T17:43:45.547Z,6.80
2019-04-21T17:46:24.518Z,7.70
2019-04-21T17:48:47.130Z,7.17
2019-04-21T17:51:25.514Z,7.55
2019-04-21T17:54:00.409Z,7.40
2019-04-21T17:56:55.173Z,7.28
2019-04-21T17:59:35.927Z,7.50
2019-04-21T18:01:54.664Z,6.67
2019-04-21T18:04:28.529Z,6.45
2019-04-21T18:06:59.355Z,7.37
2019-04-21T18:09:37.279Z,6.35
2019-04-21T18:12:05.778Z,6.17
2019-04-21T18:14:20.248Z,6.17
2019-04-21T18:16:49.880Z,6.10
2019-04-21T18:19:26.140Z,6.05
2019-04-21T18:21:56.821Z,6.78
2019-04-21T18:24:35.333Z,5.92
2019-04-21T18:26:58.784Z,6.67
2019-04-21T18:29:25.932Z,7.40
2019-04-21T18:31:56.310Z,6.25
2019-04-21T18:34:42.812Z,6.50
2019-04-21T18:37:14.750Z,6.45
2019-04-21T18:39:55.836Z,6.83
2019-04-21T18:42:37.206Z,6.20
2019-04-21T18:45:32.729Z,6.28
2019-04-21T18:47:48.934Z,6.97
2019-04-21T18:50:29.425Z,6.42
2019-04-21T18:55:37.823Z,6.08
2019-04-21T18:58:01.024Z,6.53
2019-04-21T19:00:34.477Z,6.35
2019-04-21T19:03:03.141Z,5.95
2019-04-21T19:05:34.299Z,6.45
2019-04-21T19:08:18.860Z,6.20
2019-04-21T19:10:58.644Z,6.40
2019-04-21T19:13:41.904Z,6.37
2019-04-21T19:16:17.358Z,6.20
2019-04-21T19:20:58.612Z,6.72
2019-04-21T19:26:09.903Z,7.08
2019-04-21T19:28:38.001Z,6.45
2019-04-21T19:31:17.404Z,6.92
2019-04-21T19:33:40.388Z,7.17
2019-04-21T19:35:57.639Z,7.10
2019-04-21T19:38:38.612Z,6.87
2019-04-21T19:43:45.998Z,6.87
2019-04-21T19:46:13.891Z,7.08
2019-04-21T19:48:56.685Z,7.05
2019-04-21T19:51:15.069Z,8.03
2019-04-21T19:53:44.621Z,7.85
2019-04-21T19:56:03.801Z,7.60
2019-04-21T19:58:38.438Z,9.45
2019-04-21T20:01:05.682Z,9.33
2019-04-21T20:03:36.599Z,8.88
2019-04-21T20:06:17.871Z,10.90
2019-04-21T20:08:54.687Z,9.63
2019-04-21T20:11:24.140Z,8.70
2019-04-21T20:14:26.363Z,8.70
2019-04-21T20:16:31.894Z,9.80
2019-04-21T20:21:12.160Z,8.23
2019-04-21T20:23:43.210Z,9.98
2019-04-21T20:26:14.083Z,9.85
2019-04-21T20:28:52.958Z,8.53
2019-04-21T20:31:32.834Z,9.33
2019-04-21T20:34:05.082Z,8.58
2019-04-21T20:36:35.330Z,8.70
2019-04-21T20:38:53.543Z,8.73
2019-04-21T20:41:33.849Z,8.73
2019-04-21T20:44:12.047Z,8.10
2019-04-21T20:46:39.830Z,8.13
2019-04-21T20:49:06.983Z,8.45
2019-04-21T20:51:43.823Z,8.38
2019-04-21T20:54:16.082Z,8.13
2019-04-21T20:56:52.482Z,8.98
2019-04-21T20:59:14.734Z,8.13
2019-04-21T21:04:13.552Z,8.63
2019-04-21T21:06:47.183Z,9.08
2019-04-21T21:09:17.964Z,8.30
2019-04-21T21:12:11.350Z,8.45
2019-04-21T21:17:01.271Z,9.15
2019-04-21T21:19:33.231Z,9.48
2019-04-21T21:21:54.082Z,11.50
2019-04-21T21:24:31.063Z,12.90
2019-04-21T21:26:58.983Z,13.17
2019-04-21T21:29:29.229Z,11.95
2019-04-21T21:32:08.569Z,11.18
2019-04-21T21:34:32.920Z,11.78
2019-04-21T21:37:14.304Z,16.07
2019-04-21T21:41:51.009Z,14.78
2019-04-21T21:44:22.792Z,13.22
2019-04-21T21:47:04.269Z,11.33
2019-04-21T21:49:33.516Z,11.22
2019-04-21T21:52:02.704Z,10.63
2019-04-21T21:54:23.849Z,12.35
2019-04-21T21:56:54.382Z,11.43
2019-04-21T21:59:27.865Z,10.90
2019-04-21T22:01:56.597Z,10.38
2019-04-21T22:04:28.796Z,11.12
2019-04-21T22:07:02.485Z,10.38
2019-04-21T22:12:01.347Z,10.03
2019-04-21T22:14:36.431Z,11.78
2019-04-21T22:17:16.500Z,10.08
2019-04-21T22:19:52.272Z,10.20
2019-04-21T22:22:17.960Z,11.33
2019-04-21T22:24:46.398Z,11.63
2019-04-21T22:27:05.351Z,10.75
2019-04-21T22:29:41.292Z,11.18
2019-04-21T22:32:10.215Z,11.00
2019-04-21T22:34:47.031Z,11.35
2019-04-21T22:37:27.498Z,12.00
2019-04-21T22:39:53.093Z,11.53
2019-04-21T22:44:40.592Z,12.90
2019-04-21T22:47:17.471Z,13.13
2019-04-21T22:49:41.169Z,11.93
2019-04-21T22:52:17.116Z,12.33
2019-04-21T22:54:44.917Z,12.82
2019-04-21T22:57:18.352Z,12.80
2019-04-21T22:59:51.901Z,12.53
2019-04-21T23:02:23.758Z,14.45
2019-04-21T23:04:52.481Z,13.88
2019-04-21T23:07:21.085Z,14.58
2019-04-21T23:12:25.272Z,14.23
2019-04-21T23:14:58.529Z,15.10
2019-04-21T23:17:38.467Z,15.25
2019-04-21T23:20:09.959Z,14.20
2019-04-21T23:22:56.908Z,13.78
2019-04-21T23:25:13.595Z,14.28
2019-04-21T23:27:46.902Z,14.78
2019-04-21T23:30:20.291Z,15.83
2019-04-21T23:32:36.267Z,15.32
2019-04-21T23:37:32.760Z,15.83
2019-04-21T23:40:06.982Z,15.28
2019-04-21T23:42:36.197Z,15.43
2019-04-21T23:45:04.644Z,16.00
2019-04-21T23:47:44.141Z,15.78
2019-04-21T23:50:19.923Z,16.50
2019-04-21T23:52:39.365Z,16.97
2019-04-21T23:55:09.364Z,16.17
2019-04-21T23:57:44.512Z,15.95
